sensor_id;sensor_type;location;lat;lon;timestamp;P1;durP1;ratioP1;P2;durP2;ratioP2
67841;SDS011;54642;59.126;37.876;2023-02-15T00:01:40;3.70;;;3.40;;
67841;SDS011;54642;59.126;37.876;2023-02-15T00:04:08;9.93;;;3.60;;
67841;SDS011;54642;59.126;37.876;2023-02-15T00:06:35;13.63;;;5.47;;
67841;SDS011;54642;59.126;37.876;2023-02-15T00:11:28;13.20;;;4.75;;
67841;SDS011;54642;59.126;37.876;2023-02-15T00:16:36;7.05;;;5.03;;
67841;SDS011;54642;59.126;37.876;2023-02-15T00:19:04;9.57;;;4.40;;
67841;SDS011;54642;59.126;37.876;2023-02-15T00:21:31;5.15;;;4.05;;
67841;SDS011;54642;59.126;37.876;2023-02-15T00:23:59;31.90;;;9.98;;
67841;SDS011;54642;59.126;37.876;2023-02-15T00:26:26;9.57;;;5.78;;
67841;SDS011;54642;59.126;37.876;2023-02-15T00:28:53;17.45;;;6.53;;
67841;SDS011;54642;59.126;37.876;2023-02-15T00:31:20;17.80;;;7.45;;
67841;SDS011;54642;59.126;37.876;2023-02-15T00:33:46;14.80;;;5.55;;
67841;SDS011;54642;59.126;37.876;2023-02-15T00:38:38;5.00;;;3.90;;
67841;SDS011;54642;59.126;37.876;2023-02-15T00:41:05;15.20;;;6.68;;
67841;SDS011;54642;59.126;37.876;2023-02-15T00:43:32;6.82;;;4.18;;
67841;SDS011;54642;59.126;37.876;2023-02-15T00:46:00;10.30;;;3.20;;
67841;SDS011;54642;59.126;37.876;2023-02-15T00:48:27;15.30;;;7.82;;
67841;SDS011;54642;59.126;37.876;2023-02-15T00:50:54;22.10;;;10.23;;
67841;SDS011;54642;59.126;37.876;2023-02-15T00:53:22;8.02;;;4.47;;
67841;SDS011;54642;59.126;37.876;2023-02-15T00:55:49;19.48;;;8.57;;
67841;SDS011;54642;59.126;37.876;2023-02-15T01:00:42;26.45;;;11.20;;
67841;SDS011;54642;59.126;37.876;2023-02-15T01:03:09;9.02;;;7.68;;
67841;SDS011;54642;59.126;37.876;2023-02-15T01:05:36;21.00;;;10.15;;
67841;SDS011;54642;59.126;37.876;2023-02-15T01:08:03;12.95;;;7.53;;
67841;SDS011;54642;59.126;37.876;2023-02-15T01:10:29;13.55;;;7.55;;
67841;SDS011;54642;59.126;37.876;2023-02-15T01:12:55;12.30;;;7.88;;
67841;SDS011;54642;59.126;37.876;2023-02-15T01:15:22;14.27;;;6.03;;
67841;SDS011;54642;59.126;37.876;2023-02-15T01:17:49;10.60;;;4.88;;
67841;SDS011;54642;59.126;37.876;2023-02-15T01:20:21;16.95;;;7.60;;
67841;SDS011;54642;59.126;37.876;2023-02-15T01:22:50;27.83;;;12.23;;
67841;SDS011;54642;59.126;37.876;2023-02-15T01:25:16;29.25;;;11.50;;
67841;SDS011;54642;59.126;37.876;2023-02-15T01:27:43;22.52;;;9.73;;
67841;SDS011;54642;59.126;37.876;2023-02-15T01:30:09;8.20;;;5.50;;
67841;SDS011;54642;59.126;37.876;2023-02-15T01:32:36;32.70;;;8.35;;
67841;SDS011;54642;59.126;37.876;2023-02-15T01:35:02;42.00;;;13.38;;
67841;SDS011;54642;59.126;37.876;2023-02-15T01:37:29;46.45;;;14.75;;
67841;SDS011;54642;59.126;37.876;2023-02-15T01:39:57;49.03;;;17.20;;
67841;SDS011;54642;59.126;37.876;2023-02-15T01:42:25;15.10;;;6.63;;
67841;SDS011;54642;59.126;37.876;2023-02-15T01:47:44;19.50;;;8.35;;
67841;SDS011;54642;59.126;37.876;2023-02-15T01:50:17;24.65;;;8.98;;
67841;SDS011;54642;59.126;37.876;2023-02-15T01:53:30;31.13;;;12.95;;
67841;SDS011;54642;59.126;37.876;2023-02-15T01:56:24;32.83;;;9.70;;
67841;SDS011;54642;59.126;37.876;2023-02-15T01:58:34;53.83;;;18.17;;
67841;SDS011;54642;59.126;37.876;2023-02-15T02:01:01;55.80;;;16.58;;
67841;SDS011;54642;59.126;37.876;2023-02-15T02:06:29;14.35;;;7.65;;
67841;SDS011;54642;59.126;37.876;2023-02-15T02:08:57;44.75;;;14.13;;
67841;SDS011;54642;59.126;37.876;2023-02-15T02:11:23;31.38;;;9.32;;
67841;SDS011;54642;59.126;37.876;2023-02-15T02:19:10;12.90;;;6.22;;
67841;SDS011;54642;59.126;37.876;2023-02-15T02:22:08;19.50;;;6.53;;
67841;SDS011;54642;59.126;37.876;2023-02-15T02:27:18;32.15;;;11.10;;
67841;SDS011;54642;59.126;37.876;2023-02-15T02:29:59;25.85;;;11.35;;
67841;SDS011;54642;59.126;37.876;2023-02-15T02:38:32;26.13;;;11.25;;
67841;SDS011;54642;59.126;37.876;2023-02-15T02:46:35;76.90;;;25.00;;
67841;SDS011;54642;59.126;37.876;2023-02-15T02:49:07;79.43;;;19.80;;
67841;SDS011;54642;59.126;37.876;2023-02-15T02:51:33;64.10;;;20.95;;
67841;SDS011;54642;59.126;37.876;2023-02-15T02:54:00;61.47;;;20.75;;
67841;SDS011;54642;59.126;37.876;2023-02-15T02:56:30;32.05;;;9.85;;
67841;SDS011;54642;59.126;37.876;2023-02-15T02:59:05;21.88;;;9.40;;
67841;SDS011;54642;59.126;37.876;2023-02-15T03:04:18;12.35;;;5.80;;
67841;SDS011;54642;59.126;37.876;2023-02-15T03:06:52;6.80;;;3.20;;
67841;SDS011;54642;59.126;37.876;2023-02-15T03:09:31;8.18;;;4.55;;
67841;SDS011;54642;59.126;37.876;2023-02-15T03:12:10;8.57;;;4.85;;
67841;SDS011;54642;59.126;37.876;2023-02-15T03:14:44;4.68;;;3.83;;
67841;SDS011;54642;59.126;37.876;2023-02-15T03:17:12;5.30;;;4.38;;
67841;SDS011;54642;59.126;37.876;2023-02-15T03:19:40;6.00;;;3.67;;
67841;SDS011;54642;59.126;37.876;2023-02-15T03:22:13;8.98;;;4.80;;
67841;SDS011;54642;59.126;37.876;2023-02-15T03:27:11;5.50;;;2.70;;
67841;SDS011;54642;59.126;37.876;2023-02-15T03:29:44;5.80;;;1.95;;
67841;SDS011;54642;59.126;37.876;2023-02-15T03:32:13;5.03;;;3.25;;
67841;SDS011;54642;59.126;37.876;2023-02-15T03:34:41;5.18;;;3.67;;
67841;SDS011;54642;59.126;37.876;2023-02-15T03:37:16;13.73;;;6.38;;
67841;SDS011;54642;59.126;37.876;2023-02-15T03:39:53;11.50;;;5.05;;
67841;SDS011;54642;59.126;37.876;2023-02-15T03:45:15;14.02;;;4.65;;
67841;SDS011;54642;59.126;37.876;2023-02-15T03:47:47;9.30;;;3.67;;
67841;SDS011;54642;59.126;37.876;2023-02-15T03:50:18;18.48;;;6.57;;
67841;SDS011;54642;59.126;37.876;2023-02-15T03:53:10;23.80;;;8.43;;
67841;SDS011;54642;59.126;37.876;2023-02-15T03:55:39;8.15;;;5.10;;
67841;SDS011;54642;59.126;37.876;2023-02-15T03:58:05;7.65;;;4.25;;
67841;SDS011;54642;59.126;37.876;2023-02-15T04:00:52;13.50;;;5.50;;
67841;SDS011;54642;59.126;37.876;2023-02-15T04:04:00;12.85;;;5.82;;
67841;SDS011;54642;59.126;37.876;2023-02-15T04:06:31;11.35;;;6.53;;
67841;SDS011;54642;59.126;37.876;2023-02-15T04:08:57;8.55;;;5.20;;
67841;SDS011;54642;59.126;37.876;2023-02-15T04:11:41;11.13;;;3.60;;
67841;SDS011;54642;59.126;37.876;2023-02-15T04:14:07;10.45;;;5.70;;
67841;SDS011;54642;59.126;37.876;2023-02-15T04:16:51;10.23;;;3.75;;
67841;SDS011;54642;59.126;37.876;2023-02-15T04:19:17;14.32;;;6.18;;
67841;SDS011;54642;59.126;37.876;2023-02-15T04:22:02;17.30;;;6.15;;
67841;SDS011;54642;59.126;37.876;2023-02-15T04:24:46;12.15;;;5.57;;
67841;SDS011;54642;59.126;37.876;2023-02-15T04:27:31;9.30;;;4.82;;
67841;SDS011;54642;59.126;37.876;2023-02-15T04:29:57;8.15;;;3.05;;
67841;SDS011;54642;59.126;37.876;2023-02-15T04:32:23;3.08;;;2.88;;
67841;SDS011;54642;59.126;37.876;2023-02-15T04:34:49;5.88;;;2.65;;
67841;SDS011;54642;59.126;37.876;2023-02-15T04:37:15;4.35;;;3.65;;
67841;SDS011;54642;59.126;37.876;2023-02-15T04:39:41;5.28;;;3.47;;
67841;SDS011;54642;59.126;37.876;2023-02-15T04:42:06;14.50;;;7.18;;
67841;SDS011;54642;59.126;37.876;2023-02-15T04:44:32;13.88;;;6.35;;
67841;SDS011;54642;59.126;37.876;2023-02-15T04:46:58;8.93;;;5.13;;
67841;SDS011;54642;59.126;37.876;2023-02-15T04:49:24;21.55;;;8.93;;
67841;SDS011;54642;59.126;37.876;2023-02-15T04:51:50;28.52;;;10.40;;
67841;SDS011;54642;59.126;37.876;2023-02-15T04:54:16;11.85;;;5.70;;
67841;SDS011;54642;59.126;37.876;2023-02-15T04:56:42;13.85;;;4.78;;
67841;SDS011;54642;59.126;37.876;2023-02-15T05:01:37;9.15;;;4.25;;
67841;SDS011;54642;59.126;37.876;2023-02-15T05:04:03;4.20;;;3.45;;
67841;SDS011;54642;59.126;37.876;2023-02-15T05:06:29;4.53;;;3.35;;
67841;SDS011;54642;59.126;37.876;2023-02-15T05:08:55;3.22;;;2.08;;
67841;SDS011;54642;59.126;37.876;2023-02-15T05:11:21;4.50;;;2.83;;
67841;SDS011;54642;59.126;37.876;2023-02-15T05:13:47;4.95;;;3.60;;
67841;SDS011;54642;59.126;37.876;2023-02-15T05:16:12;4.53;;;3.92;;
67841;SDS011;54642;59.126;37.876;2023-02-15T05:18:38;5.40;;;4.05;;
67841;SDS011;54642;59.126;37.876;2023-02-15T05:21:04;5.82;;;1.80;;
67841;SDS011;54642;59.126;37.876;2023-02-15T05:25:56;5.20;;;3.55;;
67841;SDS011;54642;59.126;37.876;2023-02-15T05:28:54;2.45;;;2.25;;
67841;SDS011;54642;59.126;37.876;2023-02-15T05:31:20;7.55;;;4.85;;
67841;SDS011;54642;59.126;37.876;2023-02-15T05:33:47;6.18;;;4.80;;
67841;SDS011;54642;59.126;37.876;2023-02-15T05:36:13;13.20;;;5.38;;
67841;SDS011;54642;59.126;37.876;2023-02-15T05:38:39;5.65;;;4.00;;
67841;SDS011;54642;59.126;37.876;2023-02-15T05:41:08;7.35;;;4.88;;
67841;SDS011;54642;59.126;37.876;2023-02-15T05:43:35;7.80;;;4.47;;
67841;SDS011;54642;59.126;37.876;2023-02-15T05:46:02;10.05;;;4.32;;
67841;SDS011;54642;59.126;37.876;2023-02-15T05:48:29;7.00;;;5.07;;
67841;SDS011;54642;59.126;37.876;2023-02-15T05:53:29;6.22;;;4.68;;
67841;SDS011;54642;59.126;37.876;2023-02-15T05:55:57;5.97;;;4.80;;
67841;SDS011;54642;59.126;37.876;2023-02-15T05:58:27;4.97;;;4.50;;
67841;SDS011;54642;59.126;37.876;2023-02-15T06:00:56;6.63;;;3.72;;
67841;SDS011;54642;59.126;37.876;2023-02-15T06:03:22;5.88;;;3.83;;
67841;SDS011;54642;59.126;37.876;2023-02-15T06:05:51;6.35;;;3.90;;
67841;SDS011;54642;59.126;37.876;2023-02-15T06:08:17;4.57;;;3.83;;
67841;SDS011;54642;59.126;37.876;2023-02-15T06:10:46;7.72;;;4.82;;
67841;SDS011;54642;59.126;37.876;2023-02-15T06:13:12;6.20;;;4.82;;
67841;SDS011;54642;59.126;37.876;2023-02-15T06:18:04;12.27;;;6.03;;
67841;SDS011;54642;59.126;37.876;2023-02-15T06:20:30;15.73;;;8.23;;
67841;SDS011;54642;59.126;37.876;2023-02-15T06:22:56;16.30;;;8.95;;
67841;SDS011;54642;59.126;37.876;2023-02-15T06:25:22;21.55;;;7.57;;
67841;SDS011;54642;59.126;37.876;2023-02-15T06:27:49;39.15;;;16.55;;
67841;SDS011;54642;59.126;37.876;2023-02-15T06:30:15;38.28;;;14.18;;
67841;SDS011;54642;59.126;37.876;2023-02-15T06:35:07;18.30;;;8.80;;
67841;SDS011;54642;59.126;37.876;2023-02-15T06:37:33;29.10;;;10.20;;
67841;SDS011;54642;59.126;37.876;2023-02-15T06:39:59;24.10;;;12.63;;
67841;SDS011;54642;59.126;37.876;2023-02-15T06:42:25;25.20;;;10.73;;
67841;SDS011;54642;59.126;37.876;2023-02-15T06:44:51;22.88;;;9.93;;
67841;SDS011;54642;59.126;37.876;2023-02-15T06:47:17;27.63;;;9.68;;
67841;SDS011;54642;59.126;37.876;2023-02-15T06:49:43;18.35;;;8.18;;
67841;SDS011;54642;59.126;37.876;2023-02-15T06:52:09;14.20;;;6.93;;
67841;SDS011;54642;59.126;37.876;2023-02-15T06:54:34;9.13;;;5.05;;
67841;SDS011;54642;59.126;37.876;2023-02-15T06:57:00;10.52;;;6.82;;
67841;SDS011;54642;59.126;37.876;2023-02-15T06:59:26;10.43;;;6.28;;
67841;SDS011;54642;59.126;37.876;2023-02-15T07:01:52;8.02;;;5.35;;
67841;SDS011;54642;59.126;37.876;2023-02-15T07:04:18;4.70;;;4.30;;
67841;SDS011;54642;59.126;37.876;2023-02-15T07:06:44;7.18;;;3.85;;
67841;SDS011;54642;59.126;37.876;2023-02-15T07:09:11;6.82;;;4.63;;
67841;SDS011;54642;59.126;37.876;2023-02-15T07:11:38;3.83;;;2.60;;
67841;SDS011;54642;59.126;37.876;2023-02-15T07:14:22;10.85;;;4.20;;
67841;SDS011;54642;59.126;37.876;2023-02-15T07:16:47;8.85;;;4.40;;
67841;SDS011;54642;59.126;37.876;2023-02-15T07:19:13;8.50;;;4.32;;
67841;SDS011;54642;59.126;37.876;2023-02-15T07:21:39;10.23;;;2.78;;
67841;SDS011;54642;59.126;37.876;2023-02-15T07:24:05;7.10;;;2.47;;
67841;SDS011;54642;59.126;37.876;2023-02-15T07:26:32;10.55;;;4.20;;
67841;SDS011;54642;59.126;37.876;2023-02-15T07:28:58;5.90;;;2.85;;
67841;SDS011;54642;59.126;37.876;2023-02-15T07:31:24;6.78;;;4.00;;
67841;SDS011;54642;59.126;37.876;2023-02-15T07:33:50;8.13;;;7.13;;
67841;SDS011;54642;59.126;37.876;2023-02-15T07:36:16;9.15;;;4.25;;
67841;SDS011;54642;59.126;37.876;2023-02-15T07:38:42;9.32;;;4.38;;
67841;SDS011;54642;59.126;37.876;2023-02-15T07:41:09;7.10;;;4.32;;
67841;SDS011;54642;59.126;37.876;2023-02-15T07:43:37;5.55;;;5.00;;
67841;SDS011;54642;59.126;37.876;2023-02-15T07:46:07;8.77;;;4.38;;
67841;SDS011;54642;59.126;37.876;2023-02-15T07:48:37;7.68;;;2.50;;
67841;SDS011;54642;59.126;37.876;2023-02-15T07:51:04;4.88;;;3.40;;
67841;SDS011;54642;59.126;37.876;2023-02-15T07:53:31;7.28;;;3.08;;
67841;SDS011;54642;59.126;37.876;2023-02-15T07:55:59;4.82;;;3.88;;
67841;SDS011;54642;59.126;37.876;2023-02-15T07:58:25;10.70;;;5.15;;
67841;SDS011;54642;59.126;37.876;2023-02-15T08:01:12;7.05;;;4.57;;
67841;SDS011;54642;59.126;37.876;2023-02-15T08:03:38;11.55;;;5.35;;
67841;SDS011;54642;59.126;37.876;2023-02-15T08:06:04;14.88;;;6.10;;
67841;SDS011;54642;59.126;37.876;2023-02-15T08:08:32;22.67;;;8.13;;
67841;SDS011;54642;59.126;37.876;2023-02-15T08:11:00;12.40;;;6.18;;
67841;SDS011;54642;59.126;37.876;2023-02-15T08:13:50;8.40;;;5.60;;
67841;SDS011;54642;59.126;37.876;2023-02-15T08:16:49;5.60;;;3.45;;
67841;SDS011;54642;59.126;37.876;2023-02-15T08:19:19;7.82;;;4.45;;
67841;SDS011;54642;59.126;37.876;2023-02-15T08:21:47;6.95;;;4.80;;
67841;SDS011;54642;59.126;37.876;2023-02-15T08:24:15;6.13;;;4.50;;
67841;SDS011;54642;59.126;37.876;2023-02-15T08:26:43;5.68;;;4.13;;
67841;SDS011;54642;59.126;37.876;2023-02-15T08:29:12;5.45;;;4.55;;
67841;SDS011;54642;59.126;37.876;2023-02-15T08:31:38;7.47;;;5.57;;
67841;SDS011;54642;59.126;37.876;2023-02-15T08:34:07;8.20;;;4.15;;
67841;SDS011;54642;59.126;37.876;2023-02-15T08:36:34;7.03;;;3.95;;
67841;SDS011;54642;59.126;37.876;2023-02-15T08:39:01;7.30;;;3.97;;
67841;SDS011;54642;59.126;37.876;2023-02-15T08:41:32;8.77;;;4.07;;
67841;SDS011;54642;59.126;37.876;2023-02-15T08:44:00;8.32;;;4.22;;
67841;SDS011;54642;59.126;37.876;2023-02-15T08:46:29;8.35;;;5.65;;
67841;SDS011;54642;59.126;37.876;2023-02-15T08:48:57;9.88;;;4.50;;
67841;SDS011;54642;59.126;37.876;2023-02-15T08:51:24;9.52;;;4.72;;
67841;SDS011;54642;59.126;37.876;2023-02-15T08:53:54;8.32;;;4.35;;
67841;SDS011;54642;59.126;37.876;2023-02-15T08:56:23;5.38;;;4.88;;
67841;SDS011;54642;59.126;37.876;2023-02-15T08:58:51;7.40;;;4.53;;
67841;SDS011;54642;59.126;37.876;2023-02-15T09:01:22;8.50;;;3.90;;
67841;SDS011;54642;59.126;37.876;2023-02-15T09:03:57;4.30;;;3.20;;
67841;SDS011;54642;59.126;37.876;2023-02-15T09:06:24;5.57;;;3.97;;
67841;SDS011;54642;59.126;37.876;2023-02-15T09:08:51;7.70;;;4.80;;
67841;SDS011;54642;59.126;37.876;2023-02-15T09:11:19;6.03;;;3.38;;
67841;SDS011;54642;59.126;37.876;2023-02-15T09:13:54;5.03;;;3.83;;
67841;SDS011;54642;59.126;37.876;2023-02-15T09:16:25;4.53;;;3.47;;
67841;SDS011;54642;59.126;37.876;2023-02-15T09:18:54;5.53;;;4.90;;
67841;SDS011;54642;59.126;37.876;2023-02-15T09:21:23;6.57;;;4.68;;
67841;SDS011;54642;59.126;37.876;2023-02-15T09:23:50;5.20;;;3.58;;
67841;SDS011;54642;59.126;37.876;2023-02-15T09:26:19;5.05;;;2.05;;
67841;SDS011;54642;59.126;37.876;2023-02-15T09:28:46;5.65;;;4.65;;
67841;SDS011;54642;59.126;37.876;2023-02-15T09:31:15;6.85;;;4.82;;
67841;SDS011;54642;59.126;37.876;2023-02-15T09:33:43;5.35;;;3.80;;
67841;SDS011;54642;59.126;37.876;2023-02-15T09:36:18;5.10;;;4.00;;
67841;SDS011;54642;59.126;37.876;2023-02-15T09:38:56;5.20;;;1.88;;
67841;SDS011;54642;59.126;37.876;2023-02-15T09:47:28;9.80;;;5.38;;
67841;SDS011;54642;59.126;37.876;2023-02-15T09:50:22;5.20;;;2.47;;
67841;SDS011;54642;59.126;37.876;2023-02-15T09:53:09;7.00;;;2.33;;
67841;SDS011;54642;59.126;37.876;2023-02-15T09:55:59;7.88;;;4.40;;
67841;SDS011;54642;59.126;37.876;2023-02-15T10:12:31;8.90;;;3.53;;
67841;SDS011;54642;59.126;37.876;2023-02-15T10:17:54;6.40;;;1.98;;
67841;SDS011;54642;59.126;37.876;2023-02-15T10:25:46;3.65;;;3.30;;
67841;SDS011;54642;59.126;37.876;2023-02-15T10:28:37;5.93;;;3.60;;
67841;SDS011;54642;59.126;37.876;2023-02-15T10:31:27;7.30;;;3.90;;
67841;SDS011;54642;59.126;37.876;2023-02-15T10:50:57;7.43;;;4.63;;
67841;SDS011;54642;59.126;37.876;2023-02-15T10:53:28;5.75;;;3.30;;
67841;SDS011;54642;59.126;37.876;2023-02-15T11:01:13;6.43;;;4.18;;
67841;SDS011;54642;59.126;37.876;2023-02-15T11:06:29;6.18;;;5.57;;
67841;SDS011;54642;59.126;37.876;2023-02-15T11:09:08;5.85;;;3.42;;
67841;SDS011;54642;59.126;37.876;2023-02-15T11:11:40;5.13;;;3.65;;
67841;SDS011;54642;59.126;37.876;2023-02-15T11:14:14;4.13;;;1.73;;
67841;SDS011;54642;59.126;37.876;2023-02-15T11:16:50;5.57;;;2.75;;
67841;SDS011;54642;59.126;37.876;2023-02-15T11:19:21;6.97;;;4.32;;
67841;SDS011;54642;59.126;37.876;2023-02-15T11:21:58;3.97;;;2.75;;
67841;SDS011;54642;59.126;37.876;2023-02-15T11:24:27;5.97;;;3.75;;
67841;SDS011;54642;59.126;37.876;2023-02-15T11:27:03;4.80;;;3.08;;
67841;SDS011;54642;59.126;37.876;2023-02-15T11:37:38;5.53;;;3.45;;
67841;SDS011;54642;59.126;37.876;2023-02-15T11:40:15;5.03;;;3.13;;
67841;SDS011;54642;59.126;37.876;2023-02-15T11:42:47;3.53;;;3.22;;
67841;SDS011;54642;59.126;37.876;2023-02-15T11:47:55;4.10;;;3.65;;
67841;SDS011;54642;59.126;37.876;2023-02-15T11:50:24;5.65;;;2.40;;
67841;SDS011;54642;59.126;37.876;2023-02-15T11:52:54;9.93;;;4.40;;
67841;SDS011;54642;59.126;37.876;2023-02-15T11:55:24;5.22;;;3.78;;
67841;SDS011;54642;59.126;37.876;2023-02-15T11:58:04;5.57;;;3.17;;
67841;SDS011;54642;59.126;37.876;2023-02-15T12:00:38;3.58;;;2.63;;
67841;SDS011;54642;59.126;37.876;2023-02-15T12:03:19;5.90;;;3.58;;
67841;SDS011;54642;59.126;37.876;2023-02-15T12:06:11;5.70;;;3.20;;
67841;SDS011;54642;59.126;37.876;2023-02-15T12:08:44;5.07;;;4.28;;
67841;SDS011;54642;59.126;37.876;2023-02-15T12:11:17;4.03;;;2.80;;
67841;SDS011;54642;59.126;37.876;2023-02-15T12:14:21;6.53;;;3.45;;
67841;SDS011;54642;59.126;37.876;2023-02-15T12:16:46;10.13;;;4.88;;
67841;SDS011;54642;59.126;37.876;2023-02-15T12:19:37;5.70;;;5.07;;
67841;SDS011;54642;59.126;37.876;2023-02-15T12:22:05;8.35;;;4.35;;
67841;SDS011;54642;59.126;37.876;2023-02-15T12:24:44;7.05;;;4.38;;
67841;SDS011;54642;59.126;37.876;2023-02-15T12:27:15;8.50;;;6.50;;
67841;SDS011;54642;59.126;37.876;2023-02-15T12:29:44;4.80;;;4.22;;
67841;SDS011;54642;59.126;37.876;2023-02-15T12:32:18;5.40;;;4.35;;
67841;SDS011;54642;59.126;37.876;2023-02-15T12:34:50;5.88;;;4.63;;
67841;SDS011;54642;59.126;37.876;2023-02-15T12:37:23;6.07;;;4.10;;
67841;SDS011;54642;59.126;37.876;2023-02-15T12:42:25;7.38;;;6.57;;
67841;SDS011;54642;59.126;37.876;2023-02-15T12:44:53;7.50;;;4.10;;
67841;SDS011;54642;59.126;37.876;2023-02-15T12:47:19;4.63;;;3.15;;
67841;SDS011;54642;59.126;37.876;2023-02-15T12:50:07;5.85;;;3.80;;
67841;SDS011;54642;59.126;37.876;2023-02-15T12:52:42;4.15;;;3.70;;
67841;SDS011;54642;59.126;37.876;2023-02-15T12:55:23;3.40;;;2.95;;
67841;SDS011;54642;59.126;37.876;2023-02-15T13:03:39;4.97;;;3.42;;
67841;SDS011;54642;59.126;37.876;2023-02-15T13:06:29;4.68;;;4.13;;
67841;SDS011;54642;59.126;37.876;2023-02-15T13:11:45;5.78;;;3.13;;
67841;SDS011;54642;59.126;37.876;2023-02-15T13:14:19;6.95;;;4.95;;
67841;SDS011;54642;59.126;37.876;2023-02-15T13:16:48;5.38;;;3.47;;
67841;SDS011;54642;59.126;37.876;2023-02-15T13:19:16;5.78;;;2.03;;
67841;SDS011;54642;59.126;37.876;2023-02-15T13:21:46;4.95;;;3.45;;
67841;SDS011;54642;59.126;37.876;2023-02-15T13:26:48;5.13;;;2.97;;
67841;SDS011;54642;59.126;37.876;2023-02-15T13:29:18;3.75;;;2.90;;
67841;SDS011;54642;59.126;37.876;2023-02-15T13:31:52;5.20;;;2.13;;
67841;SDS011;54642;59.126;37.876;2023-02-15T13:34:33;6.25;;;3.45;;
67841;SDS011;54642;59.126;37.876;2023-02-15T13:39:54;5.13;;;4.43;;
67841;SDS011;54642;59.126;37.876;2023-02-15T13:42:31;4.63;;;4.07;;
67841;SDS011;54642;59.126;37.876;2023-02-15T13:51:07;8.90;;;4.63;;
67841;SDS011;54642;59.126;37.876;2023-02-15T13:53:52;8.18;;;6.75;;
67841;SDS011;54642;59.126;37.876;2023-02-15T14:01:45;8.80;;;4.85;;
67841;SDS011;54642;59.126;37.876;2023-02-15T14:04:33;7.65;;;5.97;;
67841;SDS011;54642;59.126;37.876;2023-02-15T14:15:54;6.13;;;5.03;;
67841;SDS011;54642;59.126;37.876;2023-02-15T14:18:46;6.82;;;4.72;;
67841;SDS011;54642;59.126;37.876;2023-02-15T14:21:21;8.98;;;6.93;;
67841;SDS011;54642;59.126;37.876;2023-02-15T14:24:14;10.05;;;5.90;;
67841;SDS011;54642;59.126;37.876;2023-02-15T14:26:49;8.70;;;4.90;;
67841;SDS011;54642;59.126;37.876;2023-02-15T14:29:28;6.75;;;4.45;;
67841;SDS011;54642;59.126;37.876;2023-02-15T14:32:11;10.32;;;6.20;;
67841;SDS011;54642;59.126;37.876;2023-02-15T14:37:24;6.93;;;4.70;;
67841;SDS011;54642;59.126;37.876;2023-02-15T14:43:32;5.32;;;2.00;;
67841;SDS011;54642;59.126;37.876;2023-02-15T14:48:53;8.32;;;4.82;;
67841;SDS011;54642;59.126;37.876;2023-02-15T14:54:08;9.05;;;5.00;;
67841;SDS011;54642;59.126;37.876;2023-02-15T15:07:57;5.93;;;2.25;;
67841;SDS011;54642;59.126;37.876;2023-02-15T15:12:52;9.82;;;5.05;;
67841;SDS011;54642;59.126;37.876;2023-02-15T15:25:44;12.40;;;7.07;;
67841;SDS011;54642;59.126;37.876;2023-02-15T15:31:14;9.48;;;6.07;;
67841;SDS011;54642;59.126;37.876;2023-02-15T15:36:32;6.32;;;3.78;;
67841;SDS011;54642;59.126;37.876;2023-02-15T15:44:59;10.75;;;4.55;;
67841;SDS011;54642;59.126;37.876;2023-02-15T15:50:46;9.88;;;5.05;;
67841;SDS011;54642;59.126;37.876;2023-02-15T15:55:46;18.15;;;7.47;;
67841;SDS011;54642;59.126;37.876;2023-02-15T15:58:15;16.95;;;10.93;;
67841;SDS011;54642;59.126;37.876;2023-02-15T16:03:14;21.17;;;12.05;;
67841;SDS011;54642;59.126;37.876;2023-02-15T16:05:41;20.67;;;11.35;;
67841;SDS011;54642;59.126;37.876;2023-02-15T16:08:07;18.75;;;11.18;;
67841;SDS011;54642;59.126;37.876;2023-02-15T16:10:33;17.42;;;10.52;;
67841;SDS011;54642;59.126;37.876;2023-02-15T16:13:04;21.42;;;13.38;;
67841;SDS011;54642;59.126;37.876;2023-02-15T16:15:45;20.83;;;12.25;;
67841;SDS011;54642;59.126;37.876;2023-02-15T16:18:18;19.17;;;12.02;;
67841;SDS011;54642;59.126;37.876;2023-02-15T16:20:50;19.38;;;10.27;;
67841;SDS011;54642;59.126;37.876;2023-02-15T16:28:36;12.38;;;8.35;;
67841;SDS011;54642;59.126;37.876;2023-02-15T16:31:06;10.70;;;6.35;;
67841;SDS011;54642;59.126;37.876;2023-02-15T16:33:37;12.02;;;8.32;;
67841;SDS011;54642;59.126;37.876;2023-02-15T16:36:05;11.45;;;5.97;;
67841;SDS011;54642;59.126;37.876;2023-02-15T16:41:12;10.98;;;5.68;;
67841;SDS011;54642;59.126;37.876;2023-02-15T16:43:41;5.35;;;4.72;;
67841;SDS011;54642;59.126;37.876;2023-02-15T16:46:11;9.63;;;4.65;;
67841;SDS011;54642;59.126;37.876;2023-02-15T16:48:51;7.95;;;4.50;;
67841;SDS011;54642;59.126;37.876;2023-02-15T16:51:20;8.25;;;4.95;;
67841;SDS011;54642;59.126;37.876;2023-02-15T16:53:50;8.18;;;4.10;;
67841;SDS011;54642;59.126;37.876;2023-02-15T16:56:22;8.40;;;3.60;;
67841;SDS011;54642;59.126;37.876;2023-02-15T17:01:17;6.88;;;5.88;;
67841;SDS011;54642;59.126;37.876;2023-02-15T17:03:49;10.32;;;6.38;;
67841;SDS011;54642;59.126;37.876;2023-02-15T17:06:19;9.63;;;6.38;;
67841;SDS011;54642;59.126;37.876;2023-02-15T17:08:47;13.50;;;5.00;;
67841;SDS011;54642;59.126;37.876;2023-02-15T17:11:17;10.35;;;6.68;;
67841;SDS011;54642;59.126;37.876;2023-02-15T17:14:30;11.23;;;4.25;;
67841;SDS011;54642;59.126;37.876;2023-02-15T17:16:35;12.43;;;5.90;;
67841;SDS011;54642;59.126;37.876;2023-02-15T17:19:18;12.68;;;5.47;;
67841;SDS011;54642;59.126;37.876;2023-02-15T17:21:49;12.68;;;4.13;;
67841;SDS011;54642;59.126;37.876;2023-02-15T17:24:25;10.75;;;4.53;;
67841;SDS011;54642;59.126;37.876;2023-02-15T17:27:00;8.52;;;4.70;;
67841;SDS011;54642;59.126;37.876;2023-02-15T17:29:34;8.50;;;5.70;;
67841;SDS011;54642;59.126;37.876;2023-02-15T17:32:04;7.53;;;5.55;;
67841;SDS011;54642;59.126;37.876;2023-02-15T17:34:45;9.25;;;6.82;;
67841;SDS011;54642;59.126;37.876;2023-02-15T17:40:07;9.63;;;5.38;;
67841;SDS011;54642;59.126;37.876;2023-02-15T17:42:49;8.50;;;4.45;;
67841;SDS011;54642;59.126;37.876;2023-02-15T17:45:15;4.68;;;2.83;;
67841;SDS011;54642;59.126;37.876;2023-02-15T17:50:08;5.47;;;4.03;;
67841;SDS011;54642;59.126;37.876;2023-02-15T17:52:45;5.38;;;4.82;;
67841;SDS011;54642;59.126;37.876;2023-02-15T17:55:15;6.43;;;4.35;;
67841;SDS011;54642;59.126;37.876;2023-02-15T17:58:03;7.15;;;4.80;;
67841;SDS011;54642;59.126;37.876;2023-02-15T18:00:36;4.85;;;4.10;;
67841;SDS011;54642;59.126;37.876;2023-02-15T18:03:24;6.13;;;4.50;;
67841;SDS011;54642;59.126;37.876;2023-02-15T18:06:12;4.40;;;4.00;;
67841;SDS011;54642;59.126;37.876;2023-02-15T18:08:57;3.83;;;2.13;;
67841;SDS011;54642;59.126;37.876;2023-02-15T18:11:41;10.05;;;5.35;;
67841;SDS011;54642;59.126;37.876;2023-02-15T18:14:12;5.10;;;3.83;;
67841;SDS011;54642;59.126;37.876;2023-02-15T18:16:39;3.70;;;3.30;;
67841;SDS011;54642;59.126;37.876;2023-02-15T18:19:12;6.30;;;4.07;;
67841;SDS011;54642;59.126;37.876;2023-02-15T18:21:40;6.88;;;5.38;;
67841;SDS011;54642;59.126;37.876;2023-02-15T18:24:08;4.10;;;3.80;;
67841;SDS011;54642;59.126;37.876;2023-02-15T18:26:39;5.90;;;4.57;;
67841;SDS011;54642;59.126;37.876;2023-02-15T18:29:05;4.20;;;3.90;;
67841;SDS011;54642;59.126;37.876;2023-02-15T18:31:31;5.35;;;4.30;;
67841;SDS011;54642;59.126;37.876;2023-02-15T18:33:58;6.07;;;5.07;;
67841;SDS011;54642;59.126;37.876;2023-02-15T18:38:58;4.47;;;2.63;;
67841;SDS011;54642;59.126;37.876;2023-02-15T18:41:24;4.10;;;2.58;;
67841;SDS011;54642;59.126;37.876;2023-02-15T18:43:51;5.13;;;2.92;;